createdAt,value
2019-04-22T00:01:31.229Z,98430.00
2019-04-22T00:04:03.615Z,98432.00
2019-04-22T00:06:54.164Z,98429.00
2019-04-22T00:09:24.173Z,98423.00
2019-04-22T00:11:56.775Z,98424.00
2019-04-22T00:14:19.169Z,98412.00
2019-04-22T00:16:51.815Z,98414.00
2019-04-22T00:22:20.169Z,98409.00
2019-04-22T00:24:38.129Z,98405.00
2019-04-22T00:27:14.049Z,98401.00
2019-04-22T00:32:24.507Z,98408.00
2019-04-22T00:34:59.274Z,98399.00
2019-04-22T00:37:28.335Z,98400.00
2019-04-22T00:39:57.525Z,98399.00
2019-04-22T00:42:36.087Z,98398.00
2019-04-22T00:47:34.930Z,98390.00
2019-04-22T00:50:14.589Z,98397.00
2019-04-22T00:52:28.092Z,98390.00
2019-04-22T00:55:06.080Z,98392.00
2019-04-22T00:57:27.873Z,98388.00
2019-04-22T01:00:03.686Z,98383.00
2019-04-22T01:02:34.670Z,98384.00
2019-04-22T01:05:04.028Z,98385.00
2019-04-22T01:07:30.094Z,98380.00
2019-04-22T01:10:09.291Z,98382.00
2019-04-22T01:15:01.050Z,98377.00
2019-04-22T01:17:33.587Z,98375.00
2019-04-22T01:22:27.156Z,98375.00
2019-04-22T01:27:26.248Z,98363.00
2019-04-22T01:29:52.605Z,98368.00
2019-04-22T01:32:15.295Z,98361.00
2019-04-22T01:35:00.659Z,98358.00
2019-04-22T01:37:28.824Z,98352.00
2019-04-22T01:40:14.784Z,98351.00
2019-04-22T01:42:45.350Z,98359.00
2019-04-22T01:45:14.266Z,98350.00
2019-04-22T01:47:36.696Z,98353.00
2019-04-22T01:50:06.282Z,98345.00
2019-04-22T01:52:41.560Z,98355.00
2019-04-22T01:55:14.062Z,98356.00
2019-04-22T01:57:39.921Z,98349.00
2019-04-22T02:00:00.919Z,98345.00
2019-04-22T02:02:39.937Z,98350.00
2019-04-22T02:05:12.246Z,98350.00
2019-04-22T02:07:34.351Z,98348.00
2019-04-22T02:10:12.250Z,98331.00
2019-04-22T02:12:43.447Z,98332.00
2019-04-22T02:15:09.205Z,98330.00
2019-04-22T02:17:36.856Z,98329.00
2019-04-22T02:20:12.334Z,98325.00
2019-04-22T02:23:00.428Z,98326.00
2019-04-22T02:25:08.410Z,98324.00
2019-04-22T02:27:39.043Z,98330.00
2019-04-22T02:30:08.470Z,98326.00
2019-04-22T02:32:48.224Z,98335.00
2019-04-22T02:35:11.113Z,98332.00
2019-04-22T02:37:41.640Z,98326.00
2019-04-22T02:40:14.014Z,98330.00
2019-04-22T02:42:32.370Z,98324.00
2019-04-22T02:45:13.755Z,98329.00
2019-04-22T02:47:47.567Z,98327.00
2019-04-22T02:50:05.104Z,98327.00
2019-04-22T02:52:39.443Z,98326.00
2019-04-22T02:55:11.585Z,98315.00
2019-04-22T02:57:39.298Z,98327.00
2019-04-22T03:02:45.966Z,98322.00
2019-04-22T03:05:08.832Z,98331.00
2019-04-22T03:07:32.294Z,98327.00
2019-04-22T03:12:33.465Z,98324.00
2019-04-22T03:15:04.867Z,98313.00
2019-04-22T03:17:38.251Z,98312.00
2019-04-22T03:22:38.939Z,98316.00
2019-04-22T03:25:32.436Z,98313.00
2019-04-22T03:27:30.085Z,98316.00
2019-04-22T03:35:34.547Z,98306.00
2019-04-22T03:37:53.394Z,98305.00
2019-04-22T03:40:14.343Z,98306.00
2019-04-22T03:42:45.643Z,98306.00
2019-04-22T03:45:19.277Z,98305.00
2019-04-22T03:50:16.436Z,98308.00
2019-04-22T03:55:26.104Z,98296.00
2019-04-22T03:57:46.428Z,98298.00
2019-04-22T04:02:46.905Z,98308.00
2019-04-22T04:05:12.454Z,98310.00
2019-04-22T04:10:20.063Z,98300.00
2019-04-22T04:15:28.406Z,98298.00
2019-04-22T04:17:44.221Z,98299.00
2019-04-22T04:22:54.283Z,98299.00
2019-04-22T04:30:23.221Z,98291.00
2019-04-22T04:37:50.112Z,98289.00
2019-04-22T04:40:20.629Z,98284.00
2019-04-22T04:42:39.976Z,98289.00
2019-04-22T04:45:24.013Z,98288.00
2019-04-22T04:47:47.770Z,98284.00
2019-04-22T04:50:09.246Z,98286.00
2019-04-22T04:52:52.822Z,98286.00
2019-04-22T04:55:18.139Z,98281.00
2019-04-22T04:57:52.564Z,98280.00
2019-04-22T05:02:44.632Z,98272.00
2019-04-22T05:05:21.085Z,98275.00
2019-04-22T05:07:38.348Z,98281.00
2019-04-22T05:10:11.321Z,98285.00
2019-04-22T05:15:05.524Z,98287.00
2019-04-22T05:17:46.844Z,98287.00
2019-04-22T05:19:56.722Z,98288.00
2019-04-22T05:22:28.383Z,98285.00
2019-04-22T05:24:59.810Z,98287.00
2019-04-22T05:27:32.666Z,98284.00
2019-04-22T05:30:08.827Z,98278.00
2019-04-22T05:32:24.659Z,98274.00
2019-04-22T05:34:53.018Z,98272.00
2019-04-22T05:39:51.377Z,98265.00
2019-04-22T05:42:17.811Z,98270.00
2019-04-22T05:44:54.931Z,98269.00
2019-04-22T05:47:19.518Z,98268.00
2019-04-22T05:49:48.308Z,98269.00
2019-04-22T05:52:20.356Z,98265.00
2019-04-22T05:54:50.523Z,98264.00
2019-04-22T05:57:19.301Z,98271.00
2019-04-22T05:59:57.256Z,98266.00
2019-04-22T06:02:35.628Z,98261.00
2019-04-22T06:04:55.127Z,98262.00
2019-04-22T06:07:19.718Z,98260.00
2019-04-22T06:09:55.765Z,98259.00
2019-04-22T06:12:17.447Z,98260.00
2019-04-22T06:14:54.275Z,98255.00
2019-04-22T06:17:24.492Z,98247.00
2019-04-22T06:19:52.878Z,98249.00
2019-04-22T06:22:34.268Z,98254.00
2019-04-22T06:24:59.264Z,98247.00
2019-04-22T06:29:46.176Z,98244.00
2019-04-22T06:32:28.063Z,98242.00
2019-04-22T06:34:48.562Z,98237.00
2019-04-22T06:40:10.150Z,98240.00
2019-04-22T06:42:22.139Z,98235.00
2019-04-22T06:44:52.696Z,98235.00
2019-04-22T06:47:37.958Z,98244.00
2019-04-22T06:49:49.491Z,98236.00
2019-04-22T06:52:18.276Z,98230.00
2019-04-22T06:54:49.001Z,98233.00
2019-04-22T06:57:19.210Z,98229.00
2019-04-22T06:59:53.691Z,98234.00
2019-04-22T07:02:30.722Z,98218.00
2019-04-22T07:04:53.007Z,98218.00
2019-04-22T07:07:18.635Z,98217.00
2019-04-22T07:09:48.558Z,98215.00
2019-04-22T07:12:18.394Z,98209.00
2019-04-22T07:17:15.903Z,98209.00
2019-04-22T07:19:43.758Z,98205.00
2019-04-22T07:22:31.144Z,98210.00
2019-04-22T07:24:47.734Z,98198.00
2019-04-22T07:27:18.822Z,98197.00
2019-04-22T07:29:54.273Z,98194.00
2019-04-22T07:32:15.233Z,98195.00
2019-04-22T07:34:50.408Z,98192.00
2019-04-22T07:39:39.278Z,98186.00
2019-04-22T07:42:15.351Z,98181.00
2019-04-22T07:44:45.062Z,98192.00
2019-04-22T07:52:10.026Z,98176.00
2019-04-22T07:54:43.061Z,98177.00
2019-04-22T07:57:18.387Z,98177.00
2019-04-22T07:59:40.401Z,98182.00
2019-04-22T08:02:10.113Z,98180.00
2019-04-22T08:07:12.873Z,98173.00
2019-04-22T08:09:44.587Z,98163.00
2019-04-22T08:12:04.024Z,98169.00
2019-04-22T08:14:40.852Z,98157.00
2019-04-22T08:17:36.448Z,98162.00
2019-04-22T08:19:42.015Z,98149.00
2019-04-22T08:22:07.463Z,98150.00
2019-04-22T08:24:44.395Z,98147.00
2019-04-22T08:27:11.515Z,98149.00
2019-04-22T08:29:46.945Z,98147.00
2019-04-22T08:32:23.361Z,98144.00
2019-04-22T08:34:38.874Z,98127.00
2019-04-22T08:39:35.791Z,98129.00
2019-04-22T08:42:16.411Z,98125.00
2019-04-22T08:45:08.084Z,98124.00
2019-04-22T08:47:21.552Z,98132.00
2019-04-22T08:49:44.410Z,98126.00
2019-04-22T08:52:11.480Z,98119.00
2019-04-22T08:54:36.013Z,98114.00
2019-04-22T08:57:10.665Z,98114.00
2019-04-22T08:59:31.264Z,98105.00
2019-04-22T09:02:06.286Z,98106.00
2019-04-22T09:04:34.682Z,98108.00
2019-04-22T09:07:12.699Z,98103.00
2019-04-22T09:12:04.343Z,98088.00
2019-04-22T09:14:37.742Z,98092.00
2019-04-22T09:17:07.207Z,98084.00
2019-04-22T09:19:35.217Z,98084.00
2019-04-22T09:22:07.169Z,98079.00
2019-04-22T09:24:35.589Z,98080.00
2019-04-22T09:27:03.960Z,98073.00
2019-04-22T09:32:08.029Z,98079.00
2019-04-22T09:34:37.168Z,98072.00
2019-04-22T09:37:17.361Z,98075.00
2019-04-22T09:39:34.669Z,98074.00
2019-04-22T09:42:07.892Z,98068.00
2019-04-22T09:44:36.640Z,98073.00
2019-04-22T09:47:09.614Z,98057.00
2019-04-22T09:49:36.906Z,98060.00
2019-04-22T09:52:06.290Z,98054.00
2019-04-22T09:54:43.729Z,98049.00
2019-04-22T09:57:02.205Z,98035.00
2019-04-22T09:59:34.967Z,98037.00
2019-04-22T10:02:13.574Z,98030.00
2019-04-22T10:04:32.964Z,98022.00
2019-04-22T10:06:59.708Z,98022.00
2019-04-22T10:12:02.614Z,98013.00
2019-04-22T10:14:32.090Z,98016.00
2019-04-22T10:17:04.691Z,98003.00
2019-04-22T10:19:29.976Z,97995.00
2019-04-22T10:24:29.610Z,97996.00
2019-04-22T10:26:59.840Z,97997.00
2019-04-22T10:29:27.050Z,97992.00
2019-04-22T10:31:54.377Z,97989.00
2019-04-22T10:34:15.680Z,97982.00
2019-04-22T10:36:31.284Z,97979.00
2019-04-22T10:39:00.070Z,97984.00
2019-04-22T10:41:30.702Z,97978.00
2019-04-22T10:43:59.195Z,97969.00
2019-04-22T10:46:30.510Z,97973.00
2019-04-22T10:48:59.942Z,97969.00
2019-04-22T10:51:28.657Z,97960.00
2019-04-22T10:53:57.598Z,97959.00
2019-04-22T10:56:25.613Z,97952.00
2019-04-22T10:58:53.130Z,97956.00
2019-04-22T11:01:21.501Z,97945.00
2019-04-22T11:03:51.037Z,97935.00
2019-04-22T11:06:21.336Z,97928.00
2019-04-22T11:08:55.858Z,97920.00
2019-04-22T11:11:30.179Z,97920.00
2019-04-22T11:13:47.889Z,97930.00
2019-04-22T11:16:15.498Z,97927.00
2019-04-22T11:18:43.490Z,97913.00
2019-04-22T11:21:11.642Z,97918.00
2019-04-22T11:23:40.756Z,97916.00
2019-04-22T11:26:09.997Z,97906.00
2019-04-22T11:28:38.122Z,97907.00
2019-04-22T11:31:08.247Z,97902.00
2019-04-22T11:33:36.465Z,97896.00
2019-04-22T11:36:04.135Z,97900.00
2019-04-22T11:38:32.987Z,97887.00
2019-04-22T11:41:01.894Z,97881.00
2019-04-22T11:43:32.340Z,97886.00
2019-04-22T11:46:00.330Z,97870.00
2019-04-22T11:48:29.218Z,97868.00
2019-04-22T11:50:57.871Z,97872.00
2019-04-22T11:53:26.920Z,97870.00
2019-04-22T11:55:55.121Z,97866.00
2019-04-22T11:58:22.639Z,97873.00
2019-04-22T12:00:51.628Z,97862.00
2019-04-22T12:03:20.874Z,97875.00
2019-04-22T12:05:50.258Z,97865.00
2019-04-22T12:08:17.758Z,97854.00
2019-04-22T12:10:52.610Z,97860.00
2019-04-22T12:13:15.834Z,97859.00
2019-04-22T12:16:05.563Z,97868.00
2019-04-22T12:18:35.063Z,97849.00
2019-04-22T12:21:03.611Z,97853.00
2019-04-22T12:23:31.092Z,97839.00
2019-04-22T12:26:05.877Z,97846.00
2019-04-22T12:28:31.114Z,97857.00
2019-04-22T12:30:59.600Z,97835.00
2019-04-22T12:33:29.508Z,97827.00
2019-04-22T12:35:57.155Z,97833.00
2019-04-22T12:38:24.673Z,97832.00
2019-04-22T12:40:58.505Z,97825.00
2019-04-22T12:43:24.132Z,97831.00
2019-04-22T12:45:54.334Z,97805.00
2019-04-22T12:48:23.218Z,97809.00
2019-04-22T12:50:55.987Z,97805.00
2019-04-22T12:53:24.098Z,97800.00
2019-04-22T12:55:54.772Z,97804.00
2019-04-22T12:58:20.494Z,97796.00
2019-04-22T13:00:51.370Z,97794.00
2019-04-22T13:03:20.179Z,97786.00
2019-04-22T13:05:49.468Z,97792.00
2019-04-22T13:08:18.045Z,97787.00
2019-04-22T13:10:56.830Z,97782.00
2019-04-22T13:13:15.634Z,97768.00
2019-04-22T13:15:44.609Z,97774.00
2019-04-22T13:18:22.873Z,97772.00
2019-04-22T13:20:44.453Z,97762.00
2019-04-22T13:23:13.659Z,97767.00
2019-04-22T13:25:44.866Z,97774.00
2019-04-22T13:28:13.299Z,97755.00
2019-04-22T13:30:41.104Z,97751.00
2019-04-22T13:33:08.438Z,97751.00
2019-04-22T13:35:36.495Z,97745.00
2019-04-22T13:38:04.825Z,97754.00
2019-04-22T13:40:34.910Z,97744.00
2019-04-22T13:43:02.795Z,97743.00
2019-04-22T13:45:31.827Z,97746.00
2019-04-22T13:48:16.652Z,97734.00
2019-04-22T13:50:56.405Z,97737.00
2019-04-22T13:53:41.419Z,97736.00
2019-04-22T13:55:56.474Z,97723.00
2019-04-22T13:58:14.081Z,97737.00
2019-04-22T14:00:34.466Z,97728.00
2019-04-22T14:03:06.820Z,97714.00
2019-04-22T14:05:37.033Z,97720.00
2019-04-22T14:08:06.313Z,97713.00
2019-04-22T14:10:34.460Z,97723.00
2019-04-22T14:13:02.050Z,97726.00
2019-04-22T14:15:31.869Z,97712.00
2019-04-22T14:18:01.023Z,97715.00
2019-04-22T14:20:31.408Z,97717.00
2019-04-22T14:23:03.090Z,97699.00
2019-04-22T14:25:30.540Z,97703.00
2019-04-22T14:28:05.559Z,97709.00
2019-04-22T14:30:30.513Z,97711.00
2019-04-22T14:32:58.160Z,97675.00
2019-04-22T14:35:27.303Z,97692.00
2019-04-22T14:37:56.446Z,97691.00
2019-04-22T14:40:28.144Z,97673.00
2019-04-22T14:44:43.033Z,97677.00
2019-04-22T14:46:15.443Z,97682.00
2019-04-22T14:48:22.683Z,97674.00
2019-04-22T14:50:46.699Z,97689.00
2019-04-22T14:53:19.559Z,97682.00
2019-04-22T14:55:29.047Z,97676.00
2019-04-22T14:57:56.906Z,97682.00
2019-04-22T15:00:27.054Z,97672.00
2019-04-22T15:02:55.471Z,97672.00
2019-04-22T15:05:23.931Z,97675.00
2019-04-22T15:07:52.918Z,97674.00
2019-04-22T15:10:22.193Z,97666.00
2019-04-22T15:12:53.830Z,97662.00
2019-04-22T15:15:31.276Z,97678.00
2019-04-22T15:18:01.062Z,97673.00
2019-04-22T15:20:50.506Z,97665.00
2019-04-22T15:23:16.996Z,97670.00
2019-04-22T15:25:44.538Z,97676.00
2019-04-22T15:28:13.312Z,97656.00
2019-04-22T15:30:41.550Z,97655.00
2019-04-22T15:33:09.695Z,97661.00
2019-04-22T15:35:37.685Z,97650.00
2019-04-22T15:38:06.936Z,97665.00
2019-04-22T15:40:34.882Z,97662.00
2019-04-22T15:43:02.679Z,97640.00
2019-04-22T15:45:30.608Z,97657.00
2019-04-22T15:47:58.036Z,97671.00
2019-04-22T15:50:26.723Z,97656.00
2019-04-22T15:52:57.149Z,97651.00
2019-04-22T15:55:23.096Z,97665.00
2019-04-22T15:57:52.017Z,97659.00
2019-04-22T16:00:31.989Z,97670.00
2019-04-22T16:02:49.864Z,97646.00
2019-04-22T16:05:18.419Z,97658.00
2019-04-22T16:07:45.814Z,97659.00
2019-04-22T16:10:13.677Z,97663.00
2019-04-22T16:12:52.022Z,97652.00
2019-04-22T16:15:11.627Z,97659.00
2019-04-22T16:17:40.434Z,97646.00
2019-04-22T16:20:09.107Z,97635.00
2019-04-22T16:22:55.008Z,97649.00
2019-04-22T16:25:25.108Z,97646.00
2019-04-22T16:27:52.691Z,97653.00
2019-04-22T16:30:21.516Z,97603.00
2019-04-22T16:32:55.036Z,97641.00
2019-04-22T16:35:22.678Z,97645.00
2019-04-22T16:37:50.789Z,97642.00
2019-04-22T16:40:18.681Z,97649.00
2019-04-22T16:42:53.332Z,97640.00
2019-04-22T16:45:15.766Z,97649.00
2019-04-22T16:47:43.930Z,97647.00
2019-04-22T16:50:12.063Z,97639.00
2019-04-22T16:52:39.891Z,97610.00
2019-04-22T16:55:08.731Z,97631.00
2019-04-22T16:57:37.823Z,97634.00
2019-04-22T17:00:11.170Z,97646.00
2019-04-22T17:02:58.610Z,97641.00
2019-04-22T17:05:29.486Z,97631.00
2019-04-22T17:07:58.242Z,97629.00
2019-04-22T17:10:26.163Z,97632.00
2019-04-22T17:13:03.414Z,97628.00
2019-04-22T17:15:42.958Z,97623.00
2019-04-22T17:18:10.477Z,97629.00
2019-04-22T17:20:38.417Z,97628.00
2019-04-22T17:23:07.352Z,97629.00
2019-04-22T17:25:36.299Z,97621.00
2019-04-22T17:28:05.569Z,97634.00
2019-04-22T17:30:33.258Z,97630.00
2019-04-22T17:33:00.985Z,97626.00
2019-04-22T17:35:30.125Z,97613.00
2019-04-22T17:38:08.939Z,97633.00
2019-04-22T17:40:47.139Z,97629.00
2019-04-22T17:43:29.842Z,97633.00
2019-04-22T17:45:58.470Z,97637.00
2019-04-22T17:48:31.203Z,97651.00
2019-04-22T17:51:10.497Z,97633.00
2019-04-22T17:53:33.527Z,97636.00
2019-04-22T17:56:02.594Z,97648.00
2019-04-22T17:58:34.742Z,97643.00
2019-04-22T18:01:02.746Z,97659.00
2019-04-22T18:03:21.638Z,97672.00
2019-04-22T18:05:49.602Z,97655.00
2019-04-22T18:08:29.101Z,97662.00
2019-04-22T18:10:59.930Z,97642.00
2019-04-22T18:13:34.958Z,97676.00
2019-04-22T18:16:02.073Z,97666.00
2019-04-22T18:18:32.895Z,97673.00
2019-04-22T18:20:52.041Z,97667.00
2019-04-22T18:23:14.597Z,97677.00
2019-04-22T18:26:00.412Z,97678.00
2019-04-22T18:28:30.548Z,97681.00
2019-04-22T18:30:56.165Z,97670.00
2019-04-22T18:33:24.353Z,97680.00
2019-04-22T18:35:55.282Z,97685.00
2019-04-22T18:38:42.360Z,97669.00
2019-04-22T18:40:56.078Z,97682.00
2019-04-22T18:43:28.862Z,97683.00
2019-04-22T18:46:02.024Z,97673.00
2019-04-22T18:48:27.283Z,97658.00
2019-04-22T18:51:09.986Z,97682.00
2019-04-22T18:53:35.478Z,97674.00
2019-04-22T18:56:19.527Z,97682.00
2019-04-22T18:58:42.085Z,97670.00
2019-04-22T19:00:55.042Z,97670.00
2019-04-22T19:03:28.332Z,97688.00
2019-04-22T19:06:24.326Z,97681.00
2019-04-22T19:08:46.695Z,97689.00
2019-04-22T19:11:12.640Z,97671.00
2019-04-22T19:16:27.432Z,97674.00
2019-04-22T19:18:50.504Z,97673.00
2019-04-22T19:21:17.433Z,97681.00
2019-04-22T19:24:05.915Z,97665.00
2019-04-22T19:26:50.338Z,97674.00
2019-04-22T19:29:05.827Z,97680.00
2019-04-22T19:31:34.964Z,97674.00
2019-04-22T19:34:05.885Z,97680.00
2019-04-22T19:36:35.337Z,97682.00
2019-04-22T19:38:59.189Z,97656.00
2019-04-22T19:41:37.134Z,97671.00
2019-04-22T19:44:05.582Z,97677.00
2019-04-22T19:46:28.103Z,97699.00
2019-04-22T19:49:03.804Z,97679.00
2019-04-22T19:51:49.520Z,97684.00
2019-04-22T19:54:00.775Z,97645.00
2019-04-22T19:56:26.495Z,97682.00
2019-04-22T19:58:56.376Z,97645.00
2019-04-22T20:01:50.921Z,97678.00
2019-04-22T20:04:46.272Z,97673.00
2019-04-22T20:06:56.567Z,97678.00
2019-04-22T20:09:30.065Z,97679.00
2019-04-22T20:11:57.621Z,97688.00
2019-04-22T20:14:27.042Z,97674.00
2019-04-22T20:16:54.404Z,97674.00
2019-04-22T20:19:39.836Z,97675.00
2019-04-22T20:22:00.041Z,97669.00
2019-04-22T20:24:15.656Z,97656.00
2019-04-22T20:27:02.923Z,97664.00
2019-04-22T20:29:37.655Z,97659.00
2019-04-22T20:32:20.317Z,97654.00
2019-04-22T20:34:33.787Z,97674.00
2019-04-22T20:39:33.448Z,97659.00
2019-04-22T20:42:20.859Z,97649.00
2019-04-22T20:44:37.260Z,97662.00
2019-04-22T20:47:00.399Z,97657.00
2019-04-22T20:49:38.378Z,97661.00
2019-04-22T20:52:12.293Z,97665.00
2019-04-22T20:54:28.947Z,97656.00
2019-04-22T20:56:55.032Z,97665.00
2019-04-22T20:59:29.944Z,97650.00
2019-04-22T21:01:57.879Z,97651.00
2019-04-22T21:04:22.432Z,97644.00
2019-04-22T21:06:55.996Z,97668.00
2019-04-22T21:09:32.250Z,97657.00
2019-04-22T21:11:56.709Z,97655.00
2019-04-22T21:14:24.480Z,97643.00
2019-04-22T21:17:02.175Z,97648.00
2019-04-22T21:19:38.334Z,97648.00
2019-04-22T21:22:03.478Z,97646.00
2019-04-22T21:24:26.521Z,97619.00
2019-04-22T21:27:08.959Z,97635.00
2019-04-22T21:29:26.343Z,97641.00
2019-04-22T21:32:03.087Z,97643.00
2019-04-22T21:34:23.401Z,97642.00
2019-04-22T21:37:03.913Z,97643.00
2019-04-22T21:39:28.907Z,97645.00
2019-04-22T21:41:56.991Z,97638.00
2019-04-22T21:44:26.615Z,97642.00
2019-04-22T21:47:06.791Z,97638.00
2019-04-22T21:49:31.083Z,97639.00
2019-04-22T21:52:01.304Z,97624.00
2019-04-22T21:54:28.621Z,97634.00
2019-04-22T21:57:13.417Z,97629.00
2019-04-22T21:59:32.112Z,97628.00
2019-04-22T22:02:11.883Z,97621.00
2019-04-22T22:04:34.710Z,97627.00
2019-04-22T22:06:57.154Z,97619.00
2019-04-22T22:09:39.114Z,97597.00
2019-04-22T22:12:05.158Z,97619.00
2019-04-22T22:14:42.563Z,97603.00
2019-04-22T22:16:58.796Z,97619.00
2019-04-22T22:19:37.997Z,97596.00
2019-04-22T22:22:05.951Z,97607.00
2019-04-22T22:24:39.968Z,97600.00
2019-04-22T22:27:10.389Z,97609.00
2019-04-22T22:29:49.258Z,97596.00
2019-04-22T22:32:12.932Z,97569.00
2019-04-22T22:34:34.579Z,97593.00
2019-04-22T22:36:58.603Z,97587.00
2019-04-22T22:39:27.444Z,97579.00
2019-04-22T22:41:46.026Z,97584.00
2019-04-22T22:44:24.430Z,97577.00
2019-04-22T22:47:03.606Z,97576.00
2019-04-22T22:49:33.400Z,97570.00
2019-04-22T22:52:31.265Z,97576.00
2019-04-22T22:54:34.145Z,97559.00
2019-04-22T22:57:17.791Z,97560.00
2019-04-22T22:59:37.222Z,97557.00
2019-04-22T23:02:00.201Z,97558.00
2019-04-22T23:04:41.091Z,97557.00
2019-04-22T23:07:09.297Z,97545.00
2019-04-22T23:09:30.694Z,97545.00
2019-04-22T23:14:34.403Z,97551.00
2019-04-22T23:16:52.971Z,97536.00
2019-04-22T23:19:13.588Z,97532.00
2019-04-22T23:21:46.822Z,97534.00
2019-04-22T23:24:37.757Z,97529.00
2019-04-22T23:27:06.617Z,97532.00
2019-04-22T23:29:27.007Z,97525.00
2019-04-22T23:32:04.468Z,97528.00
2019-04-22T23:34:39.104Z,97525.00
2019-04-22T23:37:13.335Z,97513.00
2019-04-22T23:39:48.541Z,97504.00
2019-04-22T23:42:19.372Z,97498.00
2019-04-22T23:44:41.976Z,97495.00
2019-04-22T23:47:11.201Z,97505.00
2019-04-22T23:49:42.044Z,97487.00
2019-04-22T23:52:22.698Z,97480.00
2019-04-22T23:54:53.875Z,97484.00
